Terminal Aerodrome Forecast
Issued by NWS

Home | Current Version | Previous Version | Graphics & Text | Print | Product List | Glossary On
Versions: 1 2 3 4 5 6 7 8 9 10 11 12 13 14 15 16 17 18 19
000
FTUS43 KMPX 061749
TAFAXN
TAF
KAXN 061749Z 0618/0718 26020G32KT 1SM -SN BLSN OVC015
      TEMPO 0618/0619 1/2SM -SHSN BLSN OVC008
     FM062000 28023G31KT 3SM -SHSN OVC015
     FM070000 28021G30KT P6SM OVC020
     FM070800 28018G26KT P6SM OVC040=

USA.gov is the U.S. government's official web portal to all federal, state and local government web resources and services.